Time;durP1;ratioP1;P1;durP2;ratioP2;P2;SDS_P1;SDS_P2;PMS_P1;PMS_P2;Temp;Humidity;BMP_temperature;BMP_pressure;BME280_temperature;BME280_humidity;BME280_pressure;Samples;Min_cycle;Max_cycle;Signal;HPM_P1;HPM_P2
2024/04/11 00:00:47;;;;;;;5.00;1.05;;;11.30;99.90;;;;;;5399261;26;20381;-79
2024/04/11 00:03:13;;;;;;;7.53;0.60;;;11.30;99.90;;;;;;5408990;26;19999;-79
2024/04/11 00:05:40;;;;;;;2.60;0.40;;;11.30;99.90;;;;;;5416041;26;20010;-79
2024/04/11 00:08:06;;;;;;;7.60;0.75;;;11.40;99.90;;;;;;5404846;26;20000;-79
2024/04/11 00:10:31;;;;;;;5.07;0.50;;;11.30;99.90;;;;;;5414199;26;20014;-78
2024/04/11 00:12:58;;;;;;;3.75;0.50;;;11.40;99.90;;;;;;5417377;26;19995;-78
2024/04/11 00:15:23;;;;;;;6.45;0.70;;;11.40;99.90;;;;;;5400082;26;19999;-79
2024/04/11 00:17:49;;;;;;;6.93;0.57;;;11.40;99.90;;;;;;5410728;26;19996;-78
2024/04/11 00:20:14;;;;;;;6.75;0.75;;;11.40;99.90;;;;;;5409623;26;20000;-79
2024/04/11 00:22:40;;;;;;;3.38;0.45;;;11.40;99.90;;;;;;5417116;26;20011;-79
2024/04/11 00:25:06;;;;;;;4.93;0.50;;;11.50;99.90;;;;;;5407573;26;20014;-79
2024/04/11 00:27:32;;;;;;;10.65;1.63;;;11.50;99.90;;;;;;5417293;26;20076;-78
2024/04/11 00:29:57;;;;;;;6.00;0.50;;;11.50;99.90;;;;;;5417348;26;20019;-79
2024/04/11 00:32:23;;;;;;;4.93;0.50;;;11.60;99.90;;;;;;5416119;26;20362;-79
2024/04/11 00:34:49;;;;;;;5.28;0.50;;;11.60;99.90;;;;;;5414275;26;20015;-78
2024/04/11 00:37:15;;;;;;;5.95;0.68;;;11.60;99.90;;;;;;5415721;26;19996;-79
2024/04/11 00:39:41;;;;;;;4.78;0.40;;;11.60;99.90;;;;;;5414713;26;19999;-79
2024/04/11 00:42:07;;;;;;;4.70;0.40;;;11.70;99.90;;;;;;5414275;26;20008;-78
2024/04/11 00:44:33;;;;;;;5.25;0.32;;;11.70;99.90;;;;;;5415833;26;20007;-78
2024/04/11 00:46:58;;;;;;;8.10;0.57;;;11.70;99.90;;;;;;5402864;26;20078;-79
2024/04/11 00:49:25;;;;;;;7.22;0.55;;;11.70;99.90;;;;;;5418359;26;20006;-78
2024/04/11 00:51:52;;;;;;;6.70;0.40;;;11.80;99.90;;;;;;5408931;26;20004;-79
2024/04/11 00:54:18;;;;;;;6.25;0.45;;;11.80;99.90;;;;;;5417106;26;19999;-78
2024/04/11 00:56:44;;;;;;;4.28;0.30;;;11.90;99.90;;;;;;5400066;26;19999;-79
2024/04/11 00:59:16;;;;;;;6.25;0.60;;;11.90;99.90;;;;;;5415074;26;20316;-78
2024/04/11 01:01:44;;;;;;;5.45;0.40;;;11.90;99.90;;;;;;5414719;26;21719;-79
2024/04/11 01:04:10;;;;;;;4.25;0.30;;;12.00;99.90;;;;;;5409110;26;20077;-79
2024/04/11 01:07:06;;;;;;;5.32;0.50;;;12.00;99.90;;;;;;5398091;26;20444;-79
2024/04/11 01:09:33;;;;;;;5.65;0.52;;;12.00;99.90;;;;;;5404591;26;20023;-79
2024/04/11 01:11:59;;;;;;;6.35;0.40;;;12.00;99.90;;;;;;5407226;26;20018;-78
2024/04/11 01:14:25;;;;;;;12.82;0.80;;;12.00;99.90;;;;;;5409665;26;20003;-79
2024/04/11 01:16:51;;;;;;;11.77;0.60;;;12.00;99.90;;;;;;5394975;26;19996;-79
2024/04/11 01:19:17;;;;;;;4.20;0.40;;;12.00;99.90;;;;;;5414852;26;20018;-78
2024/04/11 01:21:43;;;;;;;7.68;0.50;;;12.10;99.90;;;;;;5413760;26;20060;-78
2024/04/11 01:24:08;;;;;;;3.15;0.30;;;12.00;99.90;;;;;;5399167;26;19999;-79
2024/04/11 01:26:37;;;;;;;2.25;0.40;;;12.10;99.90;;;;;;5404744;26;19996;-79
2024/04/11 01:29:02;;;;;;;3.28;0.50;;;12.00;99.90;;;;;;5404242;26;19997;-78
2024/04/11 01:31:28;;;;;;;5.65;0.40;;;12.10;99.90;;;;;;5413809;26;20053;-78
2024/04/11 01:33:54;;;;;;;6.68;0.80;;;12.10;99.90;;;;;;5382623;26;20333;-78
2024/04/11 01:36:20;;;;;;;4.35;0.30;;;12.10;99.90;;;;;;5389304;26;20023;-79
2024/04/11 01:38:46;;;;;;;6.00;0.40;;;12.10;99.90;;;;;;5413003;26;19991;-79
2024/04/11 01:41:12;;;;;;;3.72;0.40;;;12.10;99.90;;;;;;5403934;26;20012;-79
2024/04/11 01:43:37;;;;;;;1.90;0.40;;;12.10;99.90;;;;;;5408301;26;19995;-78
2024/04/11 01:46:03;;;;;;;3.30;0.40;;;12.10;99.90;;;;;;5398819;26;20015;-78
2024/04/11 01:48:28;;;;;;;4.20;0.40;;;12.20;99.90;;;;;;5408244;26;19996;-79
2024/04/11 01:50:54;;;;;;;7.28;0.68;;;12.20;99.90;;;;;;5407388;26;20007;-79
2024/04/11 01:53:20;;;;;;;6.68;0.40;;;12.20;99.90;;;;;;5410418;26;20012;-79
2024/04/11 01:55:47;;;;;;;3.83;0.50;;;12.20;99.90;;;;;;5399468;26;19995;-78
2024/04/11 01:58:18;;;;;;;8.10;0.90;;;12.30;99.90;;;;;;5409167;26;19999;-79
2024/04/11 02:00:44;;;;;;;5.35;0.40;;;12.20;99.90;;;;;;5384118;26;20004;-79
2024/04/11 02:03:13;;;;;;;8.15;0.70;;;12.30;99.90;;;;;;5404866;26;19999;-78
2024/04/11 02:05:41;;;;;;;3.38;0.50;;;12.30;99.90;;;;;;5411658;26;20003;-78
2024/04/11 02:08:06;;;;;;;5.28;1.05;;;12.30;99.90;;;;;;5400555;26;20600;-79
2024/04/11 02:10:32;;;;;;;7.28;0.50;;;12.30;99.90;;;;;;5407121;26;20001;-79
2024/04/11 02:12:58;;;;;;;4.65;0.45;;;12.30;99.90;;;;;;5400452;26;20011;-78
2024/04/11 02:15:27;;;;;;;8.20;0.68;;;12.30;99.90;;;;;;5404355;26;19996;-79
2024/04/11 02:17:53;;;;;;;5.07;0.60;;;12.40;99.90;;;;;;5408846;26;20004;-79
2024/04/11 02:20:20;;;;;;;4.35;0.57;;;12.40;99.90;;;;;;5413599;26;20452;-78
2024/04/11 02:22:46;;;;;;;9.10;0.73;;;12.40;99.90;;;;;;5387154;26;20015;-79
2024/04/11 02:25:13;;;;;;;5.18;0.43;;;12.30;99.90;;;;;;5403780;26;20004;-78
2024/04/11 02:27:39;;;;;;;5.18;0.88;;;12.30;99.90;;;;;;5415366;26;20335;-78
2024/04/11 02:30:09;;;;;;;6.13;0.70;;;12.30;99.90;;;;;;5409878;26;20015;-78
2024/04/11 02:32:41;;;;;;;2.50;0.45;;;12.30;99.90;;;;;;5388278;26;20084;-78
2024/04/11 02:35:11;;;;;;;6.38;0.50;;;12.30;99.90;;;;;;5388073;26;20028;-79
2024/04/11 02:37:38;;;;;;;7.18;0.60;;;12.30;99.90;;;;;;5411828;26;20057;-79
2024/04/11 02:40:07;;;;;;;5.70;0.60;;;12.30;99.90;;;;;;5402003;26;19999;-78
2024/04/11 02:42:38;;;;;;;3.30;0.50;;;12.30;99.90;;;;;;5401344;26;20000;-79
2024/04/11 02:45:07;;;;;;;3.03;0.43;;;12.30;99.90;;;;;;5404043;26;19995;-79
2024/04/11 02:47:35;;;;;;;5.93;0.40;;;12.30;99.90;;;;;;5410732;26;20003;-79
2024/04/11 02:50:01;;;;;;;5.80;0.50;;;12.30;99.90;;;;;;5412322;26;20466;-80
2024/04/11 02:52:28;;;;;;;4.38;0.43;;;12.30;99.90;;;;;;5398431;26;19999;-79
2024/04/11 02:54:54;;;;;;;7.43;0.50;;;12.30;99.90;;;;;;5410154;26;20011;-79
2024/04/11 02:57:21;;;;;;;4.78;0.52;;;12.40;99.90;;;;;;5408978;26;20031;-79
2024/04/11 02:59:51;;;;;;;6.55;0.60;;;12.40;99.90;;;;;;5411794;26;20064;-79
2024/04/11 03:02:17;;;;;;;7.07;0.60;;;12.30;99.90;;;;;;5412299;26;20435;-79
2024/04/11 03:04:43;;;;;;;3.70;0.60;;;12.30;99.90;;;;;;5415603;26;20000;-79
2024/04/11 03:07:09;;;;;;;5.63;0.70;;;12.30;99.90;;;;;;5407044;26;20023;-79
2024/04/11 03:09:35;;;;;;;3.90;0.57;;;12.30;99.90;;;;;;5409885;26;20004;-79
2024/04/11 03:12:01;;;;;;;8.65;0.70;;;12.30;99.90;;;;;;5409905;26;20436;-79
2024/04/11 03:14:27;;;;;;;10.35;0.80;;;12.30;99.90;;;;;;5405561;26;20007;-79
2024/04/11 03:16:53;;;;;;;6.60;0.50;;;12.30;99.90;;;;;;5398225;26;20016;-79
2024/04/11 03:19:19;;;;;;;8.35;1.10;;;12.30;99.90;;;;;;5400596;26;20011;-79
2024/04/11 03:21:44;;;;;;;4.90;0.50;;;12.30;99.90;;;;;;5407664;26;20003;-79
2024/04/11 03:24:12;;;;;;;5.75;0.60;;;12.30;99.90;;;;;;5398364;26;21168;-80
2024/04/11 03:26:39;;;;;;;6.07;0.40;;;12.30;99.90;;;;;;5403705;26;20015;-79
2024/04/11 03:29:05;;;;;;;2.53;0.65;;;12.30;99.90;;;;;;5411412;26;20013;-80
2024/04/11 03:31:31;;;;;;;8.98;0.65;;;12.30;99.90;;;;;;5405104;26;20427;-79
2024/04/11 03:33:58;;;;;;;5.22;0.50;;;12.20;99.90;;;;;;5416326;26;20015;-79
2024/04/11 03:36:23;;;;;;;7.28;0.80;;;12.30;99.90;;;;;;5391622;26;20004;-79
2024/04/11 03:38:54;;;;;;;6.28;0.45;;;12.30;99.90;;;;;;5398754;26;20000;-79
2024/04/11 03:41:20;;;;;;;3.92;0.60;;;12.30;99.90;;;;;;5413117;26;20011;-79
2024/04/11 03:43:53;;;;;;;3.15;0.45;;;12.30;99.90;;;;;;5410450;26;20010;-79
2024/04/11 03:46:21;;;;;;;5.70;0.90;;;12.30;99.90;;;;;;5405709;26;20039;-80
2024/04/11 03:48:50;;;;;;;7.28;0.50;;;12.30;99.90;;;;;;5401724;26;20069;-80
2024/04/11 03:51:18;;;;;;;5.53;0.40;;;12.30;99.90;;;;;;5394227;26;20004;-79
2024/04/11 03:53:45;;;;;;;4.35;0.40;;;12.20;99.90;;;;;;5401462;26;20004;-79
2024/04/11 03:56:15;;;;;;;2.92;0.30;;;12.20;99.90;;;;;;5398720;26;20000;-79
2024/04/11 03:58:44;;;;;;;5.35;0.50;;;12.20;99.90;;;;;;5397864;26;20000;-79
2024/04/11 04:01:15;;;;;;;3.85;0.85;;;12.10;99.90;;;;;;5408710;26;20003;-79
2024/04/11 04:03:42;;;;;;;4.07;0.40;;;12.20;99.90;;;;;;5410444;26;20000;-79
2024/04/11 04:06:08;;;;;;;5.72;0.50;;;12.10;99.90;;;;;;5411356;26;20076;-79
2024/04/11 04:08:35;;;;;;;3.55;0.50;;;12.10;99.90;;;;;;5414917;26;20027;-79
2024/04/11 04:11:01;;;;;;;5.30;0.55;;;12.10;99.90;;;;;;5414782;26;20011;-79
2024/04/11 04:13:27;;;;;;;5.55;0.68;;;12.10;99.90;;;;;;5410928;26;20028;-79
2024/04/11 04:15:54;;;;;;;3.67;0.43;;;12.20;99.90;;;;;;5405409;26;20015;-79
2024/04/11 04:18:24;;;;;;;2.92;0.50;;;12.10;99.90;;;;;;5414368;26;19995;-79
2024/04/11 04:20:56;;;;;;;5.50;0.47;;;12.10;99.90;;;;;;5399155;26;20000;-79
2024/04/11 04:23:22;;;;;;;;;;;12.10;99.90;;;;;;5409186;26;20000;-79
2024/04/11 04:25:59;;;;;;;5.53;0.70;;;12.10;99.90;;;;;;5416067;26;19932;-79
2024/04/11 04:28:30;;;;;;;3.00;0.38;;;12.10;99.90;;;;;;5408073;26;19998;-79
2024/04/11 04:31:14;;;;;;;2.58;0.40;;;12.10;99.90;;;;;;5396202;26;20053;-79
2024/04/11 04:33:47;;;;;;;8.73;0.60;;;12.00;99.90;;;;;;5394554;26;20455;-79
2024/04/11 04:36:18;;;;;;;5.45;0.30;;;12.00;99.90;;;;;;5394255;26;20417;-79
2024/04/11 04:38:45;;;;;;;6.35;0.57;;;12.00;99.90;;;;;;5432438;26;20075;-79
2024/04/11 04:41:13;;;;;;;3.80;0.50;;;12.00;99.90;;;;;;5401289;26;20024;-79
2024/04/11 04:43:42;;;;;;;5.95;0.40;;;12.00;99.90;;;;;;5410384;26;20062;-79
2024/04/11 04:46:08;;;;;;;5.03;0.40;;;11.90;99.90;;;;;;5403119;26;20015;-79
2024/04/11 04:48:34;;;;;;;6.30;0.80;;;11.90;99.90;;;;;;5418259;26;20014;-79
2024/04/11 04:51:00;;;;;;;5.35;0.43;;;11.90;99.90;;;;;;5414278;26;19999;-79
2024/04/11 04:53:26;;;;;;;4.35;0.45;;;11.80;99.90;;;;;;5405981;26;20047;-79
2024/04/11 04:55:52;;;;;;;6.43;0.52;;;11.80;99.90;;;;;;5405761;26;20085;-79
2024/04/11 04:58:19;;;;;;;3.15;0.43;;;11.90;99.90;;;;;;5408915;26;20012;-79
2024/04/11 05:00:46;;;;;;;7.35;0.50;;;11.80;99.90;;;;;;5397311;26;20053;-79
2024/04/11 05:03:12;;;;;;;3.60;0.47;;;11.80;99.90;;;;;;5407808;26;20076;-79
2024/04/11 05:05:38;;;;;;;5.43;0.50;;;11.90;99.90;;;;;;5409869;26;20000;-79
2024/04/11 05:08:07;;;;;;;5.47;0.73;;;11.90;99.90;;;;;;5415399;26;20003;-80
2024/04/11 05:10:34;;;;;;;3.72;0.40;;;11.90;99.90;;;;;;5399257;26;20003;-79
2024/04/11 05:13:01;;;;;;;3.75;0.70;;;11.90;99.90;;;;;;5411058;26;20010;-80
2024/04/11 05:15:28;;;;;;;6.70;0.50;;;11.90;99.90;;;;;;5412568;26;20039;-79
2024/04/11 05:17:54;;;;;;;6.05;0.65;;;11.90;99.90;;;;;;5409727;26;19996;-79
2024/04/11 05:20:27;;;;;;;8.02;0.75;;;12.00;99.90;;;;;;5412482;26;20139;-79
2024/04/11 05:22:53;;;;;;;;;;;11.90;99.90;;;;;;5410941;26;19996;-79
2024/04/11 05:25:19;;;;;;;7.20;0.50;;;12.00;99.90;;;;;;5399315;26;19938;-80
2024/04/11 05:27:46;;;;;;;4.63;0.40;;;11.90;99.90;;;;;;5403627;26;19996;-79
2024/04/11 05:30:12;;;;;;;5.22;0.40;;;12.00;99.90;;;;;;5395828;26;20000;-79
2024/04/11 05:32:39;;;;;;;3.47;0.40;;;12.00;99.90;;;;;;5406141;26;20441;-79
2024/04/11 05:35:09;;;;;;;3.67;0.50;;;12.10;99.90;;;;;;5384459;26;20018;-79
2024/04/11 05:37:36;;;;;;;5.95;0.65;;;12.20;99.90;;;;;;5387424;26;22482;-80
2024/04/11 05:40:05;;;;;;;3.83;0.55;;;12.20;99.90;;;;;;5397480;26;20004;-79
2024/04/11 05:42:31;;;;;;;6.85;0.60;;;12.20;99.90;;;;;;5404261;26;20014;-80
2024/04/11 05:44:57;;;;;;;6.15;0.40;;;12.30;99.90;;;;;;5413557;26;20340;-80
2024/04/11 05:47:23;;;;;;;7.20;0.55;;;12.30;99.90;;;;;;5394540;26;20011;-79
2024/04/11 05:49:48;;;;;;;4.25;0.60;;;12.30;99.90;;;;;;5390793;26;20000;-80
2024/04/11 05:52:14;;;;;;;4.40;0.70;;;12.30;99.90;;;;;;5399722;26;20011;-80
2024/04/11 05:54:40;;;;;;;6.18;0.65;;;12.40;99.90;;;;;;5413783;26;19995;-80
2024/04/11 05:57:05;;;;;;;3.15;0.50;;;12.40;99.90;;;;;;5413558;26;20213;-81
2024/04/11 05:59:32;;;;;;;4.10;0.40;;;12.40;99.90;;;;;;5392033;26;20007;-80
2024/04/11 06:02:01;;;;;;;3.95;0.50;;;12.50;99.90;;;;;;5403193;26;20025;-80
2024/04/11 06:04:26;;;;;;;5.95;0.75;;;12.50;99.90;;;;;;5398412;26;20421;-80
2024/04/11 06:06:52;;;;;;;5.80;0.60;;;12.50;99.90;;;;;;5395737;26;20000;-81
2024/04/11 06:09:18;;;;;;;6.78;0.88;;;12.50;99.90;;;;;;5394558;26;20000;-81
2024/04/11 06:11:43;;;;;;;3.90;0.40;;;12.50;99.90;;;;;;5407628;26;20002;-81
2024/04/11 06:14:10;;;;;;;7.00;0.65;;;12.60;99.90;;;;;;5397018;26;20085;-81
2024/04/11 06:16:39;;;;;;;7.00;0.63;;;12.60;99.90;;;;;;5414653;26;19996;-80
2024/04/11 06:19:06;;;;;;;1.20;0.30;;;12.60;99.90;;;;;;5414811;26;20006;-81
2024/04/11 06:21:36;;;;;;;5.97;0.40;;;12.60;99.90;;;;;;5413609;26;20032;-81
2024/04/11 06:24:02;;;;;;;4.60;0.50;;;12.60;99.90;;;;;;5396865;26;20003;-80
2024/04/11 06:26:28;;;;;;;6.82;0.47;;;12.50;99.90;;;;;;5405781;26;20077;-81
2024/04/11 06:28:56;;;;;;;9.07;0.68;;;12.50;99.90;;;;;;5410566;26;20459;-82
2024/04/11 06:31:28;;;;;;;7.72;0.80;;;12.50;99.90;;;;;;5412980;26;20415;-81
2024/04/11 06:33:54;;;;;;;4.60;0.50;;;12.40;99.90;;;;;;5411357;26;19995;-81
2024/04/11 06:36:21;;;;;;;4.50;0.80;;;12.40;99.90;;;;;;5414396;26;20462;-81
2024/04/11 06:38:48;;;;;;;3.03;0.43;;;12.30;99.90;;;;;;5406816;26;19992;-81
2024/04/11 06:41:22;;;;;;;4.70;0.50;;;12.30;99.90;;;;;;5380942;26;20027;-81
2024/04/11 06:43:48;;;;;;;5.47;0.50;;;12.30;99.90;;;;;;5393570;26;20344;-80
2024/04/11 06:46:14;;;;;;;4.43;0.60;;;12.30;99.90;;;;;;5407163;26;20014;-81
2024/04/11 06:48:45;;;;;;;6.07;0.68;;;12.30;99.90;;;;;;5414769;26;20000;-81
2024/04/11 06:51:14;;;;;;;5.60;0.68;;;12.30;99.90;;;;;;5415215;26;19999;-81
2024/04/11 06:53:43;;;;;;;4.72;0.60;;;12.30;99.90;;;;;;5408937;26;20000;-81
2024/04/11 06:56:11;;;;;;;6.22;0.40;;;12.30;99.90;;;;;;5382512;26;20000;-81
2024/04/11 06:58:38;;;;;;;4.07;0.68;;;12.30;99.90;;;;;;5412828;26;20014;-81
2024/04/11 07:01:08;;;;;;;5.30;0.70;;;12.30;99.90;;;;;;5401150;26;20004;-81
2024/04/11 07:03:39;;;;;;;2.58;0.50;;;12.20;99.90;;;;;;5413223;26;20347;-81
2024/04/11 07:06:21;;;;;;;4.03;1.65;;;12.20;99.90;;;;;;5399506;26;20004;-80
2024/04/11 07:08:48;;;;;;;2.20;0.40;;;12.20;99.90;;;;;;5398148;26;20338;-80
2024/04/11 07:11:27;;;;;;;7.95;0.63;;;12.10;99.90;;;;;;5397893;26;20072;-81
2024/04/11 07:13:54;;;;;;;10.60;0.68;;;12.20;99.90;;;;;;5401242;26;20006;-80
2024/04/11 07:16:25;;;;;;;3.47;0.55;;;12.20;99.90;;;;;;5397957;26;20392;-81
2024/04/11 07:18:55;;;;;;;5.75;0.55;;;12.20;99.90;;;;;;5415299;26;19999;-81
2024/04/11 07:21:30;;;;;;;6.65;0.98;;;12.20;99.90;;;;;;5414789;26;20072;-80
2024/04/11 07:23:59;;;;;;;4.90;0.52;;;12.20;99.90;;;;;;5403498;26;20004;-81
2024/04/11 07:26:29;;;;;;;3.63;0.50;;;12.30;99.90;;;;;;5412646;26;20482;-81
2024/04/11 07:29:03;;;;;;;5.82;0.60;;;12.30;99.90;;;;;;5414321;26;19999;-80
2024/04/11 07:31:31;;;;;;;5.95;0.50;;;12.20;99.90;;;;;;5406492;26;20466;-81
2024/04/11 07:34:02;;;;;;;4.70;0.55;;;12.20;99.90;;;;;;5413706;26;20004;-80
2024/04/11 07:36:30;;;;;;;9.55;0.82;;;12.20;99.90;;;;;;5403516;26;20470;-81
2024/04/11 07:38:57;;;;;;;4.28;0.70;;;12.20;99.90;;;;;;5378912;26;20000;-80
2024/04/11 07:41:28;;;;;;;4.10;0.60;;;12.30;99.90;;;;;;5396595;26;20078;-81
2024/04/11 07:44:00;;;;;;;6.18;1.20;;;12.30;99.90;;;;;;5383610;26;19996;-80
2024/04/11 07:46:29;;;;;;;4.50;0.80;;;12.30;99.90;;;;;;5395399;26;19999;-80
2024/04/11 07:48:56;;;;;;;4.07;0.95;;;12.30;99.90;;;;;;5377679;26;20468;-80
2024/04/11 07:51:22;;;;;;;4.50;0.50;;;12.30;99.90;;;;;;5385058;26;20651;-80
2024/04/11 07:53:48;;;;;;;4.43;0.93;;;12.40;99.90;;;;;;5378406;26;20039;-81
2024/04/11 07:56:25;;;;;;;3.25;0.50;;;12.40;99.90;;;;;;5375732;26;20480;-80
2024/04/11 07:58:58;;;;;;;6.70;0.85;;;12.40;99.90;;;;;;5373332;26;20000;-80
2024/04/11 08:01:37;;;;;;;6.05;0.50;;;12.40;99.90;;;;;;5376048;26;20004;-80
2024/04/11 08:04:04;;;;;;;8.98;1.15;;;12.40;99.90;;;;;;5378563;26;20000;-80
2024/04/11 08:06:31;;;;;;;9.30;0.93;;;12.50;99.90;;;;;;5377966;26;20663;-80
2024/04/11 08:08:57;;;;;;;6.85;0.88;;;12.40;99.90;;;;;;5377173;26;20080;-80
2024/04/11 08:11:23;;;;;;;4.85;0.50;;;12.50;99.90;;;;;;5379309;26;20000;-80
2024/04/11 08:13:52;;;;;;;6.68;0.98;;;12.50;99.90;;;;;;5381384;26;20011;-80
2024/04/11 08:16:18;;;;;;;3.95;0.60;;;12.60;99.90;;;;;;5380422;26;20014;-80
2024/04/11 08:18:44;;;;;;;8.43;0.80;;;12.60;99.90;;;;;;5381232;26;22374;-80
2024/04/11 08:21:11;;;;;;;8.73;0.90;;;12.60;99.90;;;;;;5380185;26;20000;-80
2024/04/11 08:23:43;;;;;;;6.65;0.75;;;12.70;99.90;;;;;;5381153;26;20018;-80
2024/04/11 08:26:12;;;;;;;5.15;0.85;;;12.90;99.90;;;;;;5381683;26;20019;-80
2024/04/11 08:28:39;;;;;;;4.22;0.70;;;12.90;99.90;;;;;;5380264;26;20488;-80
2024/04/11 08:31:08;;;;;;;3.88;0.80;;;13.00;99.90;;;;;;5386997;26;19999;-80
2024/04/11 08:33:35;;;;;;;5.75;1.10;;;13.00;99.90;;;;;;5380838;26;20004;-80
2024/04/11 08:36:04;;;;;;;5.15;0.85;;;13.10;99.90;;;;;;5381283;26;19995;-80
2024/04/11 08:38:33;;;;;;;5.47;0.60;;;13.10;99.90;;;;;;5392917;26;20000;-80
2024/04/11 08:41:05;;;;;;;3.65;0.80;;;13.10;99.90;;;;;;5398463;26;20088;-80
2024/04/11 08:43:31;;;;;;;;;;;13.20;99.90;;;;;;5387664;26;20004;-80
2024/04/11 08:45:58;;;;;;;5.30;0.80;;;13.20;99.90;;;;;;5397897;26;19932;-80
2024/04/11 08:48:24;;;;;;;4.68;0.60;;;13.20;99.90;;;;;;5386955;26;20007;-80
2024/04/11 08:50:53;;;;;;;5.43;0.80;;;13.20;99.90;;;;;;5381701;26;20015;-80
2024/04/11 08:53:23;;;;;;;7.53;1.10;;;13.20;99.90;;;;;;5388359;26;20007;-79
2024/04/11 08:55:54;;;;;;;5.40;0.90;;;13.30;99.90;;;;;;5378925;26;20000;-80
2024/04/11 08:58:20;;;;;;;6.45;0.93;;;13.30;99.90;;;;;;5379801;26;20057;-80
2024/04/11 09:00:48;;;;;;;3.60;0.57;;;13.40;99.90;;;;;;5381158;26;20328;-80
2024/04/11 09:03:15;;;;;;;5.18;0.88;;;13.50;99.90;;;;;;5386779;26;20088;-80
2024/04/11 09:05:42;;;;;;;3.55;0.90;;;13.60;99.90;;;;;;5381312;26;20011;-80
2024/04/11 09:08:10;;;;;;;7.65;1.05;;;13.80;99.90;;;;;;5379565;26;20023;-80
2024/04/11 09:10:40;;;;;;;6.70;1.50;;;13.80;99.90;;;;;;5379889;26;20008;-81
2024/04/11 09:13:06;;;;;;;5.72;1.23;;;13.90;99.90;;;;;;5383476;26;20015;-81
2024/04/11 09:15:32;;;;;;;3.17;0.90;;;13.90;99.90;;;;;;5386267;26;20451;-80
2024/04/11 09:17:59;;;;;;;4.30;0.93;;;13.90;99.90;;;;;;5401759;26;20028;-81
2024/04/11 09:20:25;;;;;;;6.65;0.98;;;13.90;99.90;;;;;;5388654;26;19996;-80
2024/04/11 09:22:55;;;;;;;9.40;1.00;;;13.80;99.90;;;;;;5416661;26;20431;-81
2024/04/11 09:25:22;;;;;;;4.40;1.23;;;13.80;99.90;;;;;;5416820;26;20004;-81
2024/04/11 09:27:54;;;;;;;5.18;1.00;;;13.70;99.90;;;;;;5397095;26;20000;-80
2024/04/11 09:30:21;;;;;;;5.57;1.27;;;13.70;99.90;;;;;;5413219;26;20392;-80
2024/04/11 09:32:54;;;;;;;6.18;1.38;;;13.80;99.90;;;;;;5417290;26;20015;-81
2024/04/11 09:35:22;;;;;;;11.25;1.52;;;13.80;99.90;;;;;;5406673;26;19999;-81
2024/04/11 09:37:54;;;;;;;7.05;1.50;;;13.90;99.90;;;;;;5417783;26;20030;-81
2024/04/11 09:40:26;;;;;;;7.85;1.48;;;13.90;99.90;;;;;;5396454;26;20004;-81
2024/04/11 09:43:03;;;;;;;6.25;1.63;;;14.00;99.90;;;;;;5388329;26;20003;-81
2024/04/11 09:45:32;;;;;;;7.40;1.90;;;14.10;99.90;;;;;;5404889;26;20015;-81
2024/04/11 09:47:58;;;;;;;5.65;2.20;;;14.10;99.90;;;;;;5404716;26;20068;-80
2024/04/11 09:50:26;;;;;;;6.95;2.13;;;14.20;99.90;;;;;;5392614;26;20001;-80
2024/04/11 09:52:53;;;;;;;6.25;2.63;;;14.20;99.90;;;;;;5396890;26;19991;-81
2024/04/11 09:55:30;;;;;;;5.70;2.78;;;14.30;99.90;;;;;;5409761;26;20015;-81
2024/04/11 09:57:58;;;;;;;8.48;2.63;;;14.40;99.90;;;;;;5410713;26;20031;-81
2024/04/11 10:00:48;;;;;;;8.35;2.90;;;14.40;99.90;;;;;;5400594;26;20011;-81
2024/04/11 10:03:09;;;;;;;8.40;2.50;;;14.40;99.90;;;;;;5389593;26;20036;-81
2024/04/11 10:05:43;;;;;;;7.57;3.10;;;14.40;99.90;;;;;;5392510;26;19999;-81
2024/04/11 10:08:16;;;;;;;8.52;3.30;;;14.30;99.90;;;;;;5403724;26;20045;-81
2024/04/11 10:10:42;;;;;;;8.35;3.00;;;14.30;99.90;;;;;;5403325;26;19999;-80
2024/04/11 10:13:12;;;;;;;7.47;2.88;;;14.30;99.90;;;;;;5398802;26;20503;-81
2024/04/11 10:15:38;;;;;;;10.82;3.65;;;14.20;99.90;;;;;;5400885;26;20347;-81
2024/04/11 10:18:08;;;;;;;6.80;3.33;;;14.10;99.90;;;;;;5409315;26;19995;-81
2024/04/11 10:21:05;;;;;;;10.48;3.72;;;14.10;99.90;;;;;;5410365;26;19999;-81
2024/04/11 10:23:37;;;;;;;12.48;4.20;;;14.10;99.90;;;;;;5415725;26;19996;-81
2024/04/11 10:26:06;;;;;;;14.07;5.17;;;14.10;99.90;;;;;;5415803;26;20028;-81
2024/04/11 10:28:41;;;;;;;9.13;4.25;;;14.10;99.90;;;;;;5401914;26;19999;-81
2024/04/11 10:31:17;;;;;;;9.63;4.30;;;14.10;99.90;;;;;;5383817;26;20008;-81
2024/04/11 10:33:58;;;;;;;7.93;4.45;;;14.10;99.90;;;;;;5389918;26;20401;-81
2024/04/11 10:36:32;;;;;;;8.65;4.55;;;14.00;99.90;;;;;;5394187;26;20004;-80
2024/04/11 10:39:02;;;;;;;17.17;5.72;;;14.00;99.90;;;;;;5379597;26;20859;-80
2024/04/11 10:41:29;;;;;;;9.07;4.85;;;14.00;99.90;;;;;;5376727;26;20017;-81
2024/04/11 10:43:59;;;;;;;11.07;5.15;;;14.10;99.90;;;;;;5387989;26;20605;-81
2024/04/11 10:46:26;;;;;;;8.60;4.68;;;14.10;99.90;;;;;;5380568;26;20000;-81
2024/04/11 10:48:52;;;;;;;10.75;5.10;;;14.10;99.90;;;;;;5396135;26;20032;-80
2024/04/11 10:51:27;;;;;;;11.38;4.47;;;14.10;99.90;;;;;;5374018;26;20090;-81
2024/04/11 10:54:11;;;;;;;11.82;4.88;;;14.10;99.90;;;;;;5386265;26;20007;-80
2024/04/11 10:56:41;;;;;;;7.68;5.80;;;14.20;99.90;;;;;;5380337;26;20000;-81
2024/04/11 10:59:14;;;;;;;12.57;6.13;;;14.20;99.90;;;;;;5382043;26;20008;-81
2024/04/11 11:01:47;;;;;;;14.63;6.78;;;14.20;99.90;;;;;;5380083;26;20045;-81
2024/04/11 11:04:15;;;;;;;10.63;7.45;;;14.20;99.90;;;;;;5406447;26;20622;-81
2024/04/11 11:06:51;;;;;;;9.57;6.65;;;14.20;99.90;;;;;;5384037;26;19999;-81
2024/04/11 11:09:18;;;;;;;12.18;6.25;;;14.30;99.90;;;;;;5378683;26;20474;-81
2024/04/11 11:11:45;;;;;;;10.88;7.63;;;14.30;99.90;;;;;;5377534;26;20029;-81
2024/04/11 11:14:17;;;;;;;12.65;7.75;;;14.30;99.90;;;;;;5378220;26;20019;-81
2024/04/11 11:16:44;;;;;;;18.25;8.10;;;14.40;99.90;;;;;;5385098;26;20764;-81
2024/04/11 11:19:13;;;;;;;12.85;8.77;;;14.40;99.90;;;;;;5373854;26;20015;-80
2024/04/11 11:21:42;;;;;;;12.50;8.75;;;14.50;99.90;;;;;;5377581;26;22173;-81
2024/04/11 11:24:14;;;;;;;16.55;10.38;;;14.60;99.90;;;;;;5374172;26;20081;-81
2024/04/11 11:26:44;;;;;;;15.50;9.27;;;14.60;99.90;;;;;;5377504;26;20043;-80
2024/04/11 11:29:11;;;;;;;14.30;9.65;;;14.60;99.90;;;;;;5376592;26;20037;-81
2024/04/11 11:31:42;;;;;;;13.13;9.68;;;14.60;99.90;;;;;;5380900;26;20427;-81
2024/04/11 11:34:09;;;;;;;15.00;9.65;;;14.70;99.90;;;;;;5386009;26;20013;-81
2024/04/11 11:36:47;;;;;;;12.10;9.65;;;14.80;99.90;;;;;;5404935;26;20007;-81
2024/04/11 11:39:20;;;;;;;12.50;10.45;;;15.00;99.90;;;;;;5380120;26;20056;-81
2024/04/11 11:41:48;;;;;;;13.55;10.82;;;15.00;99.90;;;;;;5378935;26;20089;-80
2024/04/11 11:44:18;;;;;;;17.55;10.40;;;15.10;99.90;;;;;;5381587;26;20000;-80
2024/04/11 11:47:05;;;;;;;13.63;10.98;;;15.10;99.90;;;;;;5376488;26;19996;-80
2024/04/11 11:49:35;;;;;;;18.48;12.05;;;15.20;99.90;;;;;;5378286;26;20872;-80
2024/04/11 11:52:02;;;;;;;16.33;11.73;;;15.20;99.90;;;;;;5385789;26;20007;-81
2024/04/11 11:54:28;;;;;;;15.05;10.30;;;15.20;99.90;;;;;;5395953;26;20011;-81
2024/04/11 11:57:09;;;;;;;15.98;11.55;;;15.10;99.90;;;;;;5379858;26;20018;-81
2024/04/11 11:59:35;;;;;;;17.85;12.40;;;15.10;99.90;;;;;;5381090;26;20470;-81
2024/04/11 12:02:01;;;;;;;13.07;11.40;;;15.10;99.90;;;;;;5364697;26;20017;-80
2024/04/11 12:04:30;;;;;;;16.95;11.93;;;15.10;99.90;;;;;;5381968;26;19995;-81
2024/04/11 12:06:59;;;;;;;14.85;11.45;;;15.10;99.90;;;;;;5400110;26;20427;-81
2024/04/11 12:09:31;;;;;;;15.82;11.90;;;15.20;99.90;;;;;;5379833;26;20012;-81
2024/04/11 12:14:42;;;;;;;13.65;11.95;;;15.20;99.90;;;;;;5383197;26;20019;-80
2024/04/11 12:17:10;;;;;;;15.45;11.90;;;15.30;99.90;;;;;;5392308;26;20028;-80
2024/04/11 12:19:36;;;;;;;14.32;10.85;;;15.30;99.90;;;;;;5384252;26;20023;-81
2024/04/11 12:22:15;;;;;;;12.25;10.27;;;15.40;99.90;;;;;;5384392;26;19996;-80
2024/04/11 12:24:45;;;;;;;17.05;11.48;;;15.40;99.90;;;;;;5379540;26;20019;-81
2024/04/11 12:27:13;;;;;;;17.60;13.20;;;15.40;99.90;;;;;;5384714;26;20080;-81
2024/04/11 12:29:40;;;;;;;16.17;12.02;;;15.40;99.90;;;;;;5376431;26;20089;-79
2024/04/11 12:32:07;;;;;;;14.35;11.45;;;15.50;99.90;;;;;;5383579;26;21294;-77
2024/04/11 12:34:33;;;;;;;11.63;10.43;;;15.50;99.90;;;;;;5374813;26;21273;-78
2024/04/11 12:37:11;;;;;;;13.82;10.85;;;15.50;99.90;;;;;;5380026;26;22683;-79
2024/04/11 12:39:41;;;;;;;12.45;11.15;;;15.50;99.90;;;;;;5380246;26;20003;-78
2024/04/11 12:42:14;;;;;;;13.60;11.35;;;15.50;99.90;;;;;;5385584;26;20018;-78
2024/04/11 12:44:39;;;;;;;13.20;11.00;;;15.50;99.90;;;;;;5378205;26;20008;-79
2024/04/11 12:47:14;;;;;;;13.98;11.80;;;15.50;99.90;;;;;;5377503;26;20010;-78
2024/04/11 12:49:47;;;;;;;11.90;10.57;;;15.50;99.90;;;;;;5378959;26;20003;-78
2024/04/11 12:52:13;;;;;;;15.80;10.75;;;15.60;99.90;;;;;;5385352;26;20006;-80
2024/04/11 12:54:40;;;;;;;17.95;11.45;;;15.50;99.90;;;;;;5379292;26;20006;-79